Terminal Aerodrome Forecast
Issued by NWS

Home | Current Version | Previous Version | Text Only | Print | Product List | Glossary On
Versions: 1 2 3 4 5 6 7 8 9 10 11 12 13 14 15 16
000
FTUS42 KTBW 011100
TAFPGD
TAF
KPGD 011123Z 0112/0212 VRB05KT P6SM VCSH SCT020 BKN035
      TEMPO 0112/0114 4SM -SHRA SCT015 BKN025
     FM011500 25006KT P6SM VCTS SCT025CB BKN080
     FM012000 27008KT P6SM VCTS SCT030CB BKN080
     FM020100 VRB03KT P6SM FEW025 BKN250=

USA.gov is the U.S. government's official web portal to all federal, state and local government web resources and services.